createdAt,value
2018-06-16T00:01:35.347Z,19.59
2018-06-16T00:04:04.978Z,19.66
2018-06-16T00:06:33.953Z,19.58
2018-06-16T00:09:03.631Z,19.58
2018-06-16T00:11:36.250Z,19.47
2018-06-16T00:14:05.807Z,19.44
2018-06-16T00:16:34.768Z,19.34
2018-06-16T00:19:04.004Z,19.41
2018-06-16T00:21:35.244Z,19.26
2018-06-16T00:24:04.392Z,19.16
2018-06-16T00:26:33.519Z,19.11
2018-06-16T00:29:02.568Z,19.07
2018-06-16T00:31:36.054Z,18.95
2018-06-16T00:34:05.078Z,18.85
2018-06-16T00:36:34.179Z,18.86
2018-06-16T00:39:03.249Z,18.75
2018-06-16T00:41:35.958Z,18.76
2018-06-16T00:44:05.024Z,18.75
2018-06-16T00:46:34.182Z,18.78
2018-06-16T00:49:03.212Z,18.77
2018-06-16T00:51:35.827Z,18.73
2018-06-16T00:54:04.888Z,18.64
2018-06-16T00:56:34.822Z,18.68
2018-06-16T00:59:03.779Z,18.61
2018-06-16T01:01:35.869Z,18.61
2018-06-16T01:04:05.027Z,18.42
2018-06-16T01:06:34.264Z,18.42
2018-06-16T01:09:03.898Z,18.34
2018-06-16T01:11:34.802Z,18.08
2018-06-16T01:14:04.107Z,18.11
2018-06-16T01:16:33.211Z,18.01
2018-06-16T01:19:02.314Z,17.85
2018-06-16T01:21:38.054Z,18.02
2018-06-16T01:24:06.997Z,17.84
2018-06-16T01:26:36.242Z,17.88
2018-06-16T01:29:05.336Z,17.92
2018-06-16T01:31:34.541Z,17.82
2018-06-16T01:34:03.876Z,17.86
2018-06-16T01:36:32.806Z,17.81
2018-06-16T01:39:02.498Z,17.83
2018-06-16T01:41:34.738Z,17.77
2018-06-16T01:44:04.072Z,17.63
2018-06-16T01:46:33.772Z,17.63
2018-06-16T01:49:03.535Z,17.64
2018-06-16T01:51:35.736Z,17.60
2018-06-16T01:54:05.011Z,17.56
2018-06-16T01:56:34.075Z,17.69
2018-06-16T01:59:03.221Z,17.61
2018-06-16T02:01:35.242Z,17.70
2018-06-16T02:04:04.575Z,17.67
2018-06-16T02:06:34.053Z,17.82
2018-06-16T02:09:03.274Z,17.90
2018-06-16T02:11:35.850Z,17.93
2018-06-16T02:14:05.111Z,17.82
2018-06-16T02:16:34.052Z,17.68
2018-06-16T02:19:03.171Z,17.42
2018-06-16T02:21:35.379Z,17.46
2018-06-16T02:24:04.506Z,17.53
2018-06-16T02:26:33.575Z,17.54
2018-06-16T02:29:02.930Z,17.54
2018-06-16T02:31:36.106Z,17.45
2018-06-16T02:34:05.491Z,17.46
2018-06-16T02:36:34.460Z,17.52
2018-06-16T02:39:03.996Z,17.49
2018-06-16T02:41:34.903Z,17.34
2018-06-16T02:44:03.879Z,17.23
2018-06-16T02:46:33.115Z,17.37
2018-06-16T02:49:02.479Z,17.27
2018-06-16T02:51:34.993Z,17.08
2018-06-16T02:54:04.455Z,17.11
2018-06-16T02:56:33.375Z,17.01
2018-06-16T02:59:02.507Z,16.95
2018-06-16T03:01:35.842Z,16.78
2018-06-16T03:04:05.136Z,16.77
2018-06-16T03:06:34.972Z,16.78
2018-06-16T03:09:04.767Z,16.82
2018-06-16T03:11:34.179Z,16.84
2018-06-16T03:14:03.162Z,16.79
2018-06-16T03:16:32.403Z,16.95
2018-06-16T03:19:01.868Z,16.99
2018-06-16T03:21:35.804Z,16.98
2018-06-16T03:24:04.895Z,16.91
2018-06-16T03:26:33.975Z,16.94
2018-06-16T03:29:03.141Z,16.76
2018-06-16T03:31:35.816Z,16.68
2018-06-16T03:34:05.109Z,16.63
2018-06-16T03:36:34.157Z,16.76
2018-06-16T03:39:03.551Z,16.77
2018-06-16T03:41:35.644Z,16.85
2018-06-16T03:44:05.192Z,16.89
2018-06-16T03:46:34.460Z,16.85
2018-06-16T03:49:03.547Z,16.79
2018-06-16T03:51:35.702Z,16.90
2018-06-16T03:54:04.647Z,16.95
2018-06-16T03:56:33.639Z,16.91
2018-06-16T03:59:03.167Z,16.85
2018-06-16T04:01:35.775Z,16.77
2018-06-16T04:04:05.217Z,16.88
2018-06-16T04:06:34.565Z,16.87
2018-06-16T04:09:04.951Z,16.83
2018-06-16T04:11:34.915Z,16.67
2018-06-16T04:14:03.992Z,17.00
2018-06-16T04:16:32.923Z,17.06
2018-06-16T04:19:02.175Z,17.22
2018-06-16T04:21:34.482Z,17.14
2018-06-16T04:24:03.457Z,17.10
2018-06-16T04:26:32.662Z,17.11
2018-06-16T04:29:01.731Z,17.25
2018-06-16T04:31:33.924Z,17.27
2018-06-16T04:34:03.007Z,17.36
2018-06-16T04:36:32.142Z,17.46
2018-06-16T04:39:01.207Z,17.52
2018-06-16T04:41:33.584Z,17.54
2018-06-16T04:44:03.142Z,17.15
2018-06-16T04:46:32.382Z,17.10
2018-06-16T04:49:01.467Z,17.12
2018-06-16T04:51:33.965Z,17.45
2018-06-16T04:54:03.031Z,17.73
2018-06-16T04:56:32.183Z,17.89
2018-06-16T04:59:01.700Z,17.70
2018-06-16T05:01:34.470Z,17.94
2018-06-16T05:04:03.670Z,17.98
2018-06-16T05:06:32.931Z,18.00
2018-06-16T05:09:01.859Z,18.13
2018-06-16T05:11:35.716Z,18.05
2018-06-16T05:14:05.411Z,18.17
2018-06-16T05:16:34.748Z,18.14
2018-06-16T05:19:04.284Z,18.24
2018-06-16T05:21:34.151Z,18.39
2018-06-16T05:24:03.242Z,18.45
2018-06-16T05:26:32.170Z,18.63
2018-06-16T05:29:01.121Z,18.61
2018-06-16T05:31:33.724Z,18.81
2018-06-16T05:34:03.623Z,18.67
2018-06-16T05:36:32.562Z,18.75
2018-06-16T05:39:01.815Z,18.68
2018-06-16T05:41:34.926Z,18.71
2018-06-16T05:44:04.008Z,18.71
2018-06-16T05:46:33.094Z,18.72
2018-06-16T05:49:02.624Z,19.00
2018-06-16T05:51:35.689Z,19.05
2018-06-16T05:54:04.663Z,19.23
2018-06-16T05:56:33.875Z,19.13
2018-06-16T05:59:02.922Z,19.20
2018-06-16T06:01:34.185Z,19.39
2018-06-16T06:04:03.359Z,19.32
2018-06-16T06:06:32.688Z,19.34
2018-06-16T06:09:02.590Z,19.40
2018-06-16T06:11:35.932Z,19.48
2018-06-16T06:14:05.899Z,19.71
2018-06-16T06:16:35.580Z,19.69
2018-06-16T06:19:04.692Z,19.74
2018-06-16T06:21:34.049Z,19.90
2018-06-16T06:24:03.979Z,19.60
2018-06-16T06:26:33.299Z,19.61
2018-06-16T06:29:02.585Z,19.48
2018-06-16T06:31:35.448Z,19.96
2018-06-16T06:34:04.579Z,20.48
2018-06-16T06:36:33.866Z,20.85
2018-06-16T06:39:04.378Z,20.89
2018-06-16T06:41:35.357Z,20.44
2018-06-16T06:44:05.050Z,20.90
2018-06-16T06:46:34.110Z,21.16
2018-06-16T06:49:03.083Z,21.09
2018-06-16T06:51:36.081Z,21.01
2018-06-16T06:54:05.006Z,20.74
2018-06-16T06:56:34.362Z,20.83
2018-06-16T06:59:03.615Z,20.94
2018-06-16T07:01:34.890Z,21.10
2018-06-16T07:04:04.016Z,20.90
2018-06-16T07:06:33.035Z,21.41
2018-06-16T07:09:02.923Z,21.23
2018-06-16T07:11:36.111Z,21.06
2018-06-16T07:14:05.326Z,21.50
2018-06-16T07:16:35.025Z,21.18
2018-06-16T07:19:04.174Z,21.68
2018-06-16T07:21:34.647Z,21.58
2018-06-16T07:24:03.835Z,21.47
2018-06-16T07:26:33.303Z,21.48
2018-06-16T07:29:02.974Z,21.44
2018-06-16T07:31:35.833Z,21.06
2018-06-16T07:34:05.171Z,20.69
2018-06-16T07:36:34.126Z,21.06
2018-06-16T07:39:03.780Z,21.47
2018-06-16T07:41:36.339Z,21.91
2018-06-16T07:44:05.923Z,22.05
2018-06-16T07:46:35.136Z,22.48
2018-06-16T07:49:04.100Z,21.93
2018-06-16T07:51:34.844Z,21.88
2018-06-16T07:54:03.847Z,22.15
2018-06-16T07:56:32.872Z,21.52
2018-06-16T07:59:03.140Z,22.31
2018-06-16T08:01:34.848Z,22.01
2018-06-16T08:04:04.019Z,21.67
2018-06-16T08:06:33.261Z,21.56
2018-06-16T08:09:02.608Z,21.93
2018-06-16T08:11:34.979Z,22.38
2018-06-16T08:14:04.147Z,22.85
2018-06-16T08:16:33.387Z,22.92
2018-06-16T08:19:02.637Z,22.44
2018-06-16T08:21:35.240Z,22.95
2018-06-16T08:24:04.557Z,23.34
2018-06-16T08:26:34.332Z,24.28
2018-06-16T08:29:04.264Z,24.58
2018-06-16T08:31:35.344Z,25.10
2018-06-16T08:34:04.531Z,24.97
2018-06-16T08:36:33.736Z,25.57
2018-06-16T08:39:02.900Z,25.96
2018-06-16T08:41:36.219Z,25.88
2018-06-16T08:44:05.353Z,24.88
2018-06-16T08:46:36.491Z,25.78
2018-06-16T08:49:06.798Z,26.73
2018-06-16T08:51:36.178Z,27.01
2018-06-16T08:54:05.798Z,25.24
2018-06-16T08:56:35.176Z,25.65
2018-06-16T08:59:04.310Z,26.35
2018-06-16T09:01:35.332Z,25.01
2018-06-16T09:04:04.445Z,24.65
2018-06-16T09:06:33.543Z,24.48
2018-06-16T09:09:03.109Z,24.88
2018-06-16T09:11:33.877Z,24.19
2018-06-16T09:14:03.310Z,23.85
2018-06-16T09:16:32.616Z,25.58
2018-06-16T09:19:01.659Z,26.15
2018-06-16T09:21:34.467Z,25.50
2018-06-16T09:24:03.875Z,26.15
2018-06-16T09:26:33.703Z,24.24
2018-06-16T09:29:02.760Z,25.49
2018-06-16T09:31:36.259Z,24.69
2018-06-16T09:34:06.245Z,25.60
2018-06-16T09:36:35.887Z,25.37
2018-06-16T09:39:09.092Z,25.27
2018-06-16T09:41:38.112Z,25.45
2018-06-16T09:44:08.180Z,26.50
2018-06-16T09:46:37.301Z,27.49
2018-06-16T09:49:06.464Z,27.33
2018-06-16T09:51:36.149Z,26.10
2018-06-16T09:54:05.455Z,24.52
2018-06-16T09:56:35.336Z,24.17
2018-06-16T09:59:04.612Z,24.63
2018-06-16T10:01:36.378Z,24.33
2018-06-16T10:04:05.663Z,24.95
2018-06-16T10:06:34.636Z,25.05
2018-06-16T10:09:05.564Z,25.06
2018-06-16T10:11:34.811Z,24.93
2018-06-16T10:14:03.985Z,24.61
2018-06-16T10:16:33.556Z,25.20
2018-06-16T10:19:03.774Z,25.43
2018-06-16T10:21:35.012Z,25.57
2018-06-16T10:24:03.958Z,25.25
2018-06-16T10:26:32.976Z,24.80
2018-06-16T10:29:02.107Z,25.03
2018-06-16T10:31:34.587Z,24.96
2018-06-16T10:34:03.619Z,24.94
2018-06-16T10:36:32.900Z,24.90
2018-06-16T10:39:02.104Z,24.95
2018-06-16T10:41:35.378Z,24.62
2018-06-16T10:44:04.606Z,23.91
2018-06-16T10:46:33.720Z,24.12
2018-06-16T10:49:02.755Z,24.30
2018-06-16T10:51:33.850Z,24.37
2018-06-16T10:54:02.995Z,24.40
2018-06-16T10:56:32.254Z,24.84
2018-06-16T10:59:01.800Z,24.42
2018-06-16T11:01:34.511Z,24.04
2018-06-16T11:04:03.522Z,24.51
2018-06-16T11:06:32.518Z,24.96
2018-06-16T11:09:02.388Z,24.82
2018-06-16T11:11:34.933Z,24.99
2018-06-16T11:14:04.240Z,24.83
2018-06-16T11:16:33.519Z,24.56
2018-06-16T11:19:02.660Z,25.71
2018-06-16T11:21:36.371Z,26.00
2018-06-16T11:24:05.769Z,26.43
2018-06-16T11:26:34.958Z,25.39
2018-06-16T11:29:04.200Z,25.15
2018-06-16T11:31:35.015Z,24.87
2018-06-16T11:34:04.170Z,24.62
2018-06-16T11:36:33.635Z,24.71
2018-06-16T11:39:02.723Z,24.44
2018-06-16T11:41:37.286Z,25.33
2018-06-16T11:44:08.194Z,25.25
2018-06-16T11:46:40.268Z,24.95
2018-06-16T11:49:10.203Z,25.71
2018-06-16T11:51:39.605Z,26.32
2018-06-16T11:54:08.558Z,26.18
2018-06-16T11:56:37.774Z,26.30
2018-06-16T11:59:06.802Z,25.21
2018-06-16T12:01:35.799Z,25.79
2018-06-16T12:04:04.995Z,25.03
2018-06-16T12:06:34.248Z,25.34
2018-06-16T12:09:03.474Z,25.96
2018-06-16T12:11:34.259Z,25.80
2018-06-16T12:14:03.833Z,26.23
2018-06-16T12:16:33.080Z,25.62
2018-06-16T12:19:02.208Z,25.41
2018-06-16T12:21:35.136Z,25.53
2018-06-16T12:24:04.148Z,25.07
2018-06-16T12:26:33.562Z,25.74
2018-06-16T12:29:02.914Z,25.83
2018-06-16T12:31:35.505Z,25.26
2018-06-16T12:34:05.192Z,25.18
2018-06-16T12:36:34.532Z,25.36
2018-06-16T12:39:04.337Z,25.62
2018-06-16T12:41:35.018Z,25.26
2018-06-16T12:44:04.536Z,26.19
2018-06-16T12:46:33.823Z,26.02
2018-06-16T12:49:03.023Z,26.42
2018-06-16T12:51:34.083Z,25.55
2018-06-16T12:54:03.097Z,25.14
2018-06-16T12:56:33.299Z,25.15
2018-06-16T12:59:02.196Z,25.39
2018-06-16T13:01:34.847Z,26.00
2018-06-16T13:04:03.884Z,25.76
2018-06-16T13:06:33.287Z,25.49
2018-06-16T13:09:02.572Z,25.89
2018-06-16T13:11:35.719Z,26.24
2018-06-16T13:14:04.987Z,26.57
2018-06-16T13:16:34.188Z,26.21
2018-06-16T13:19:03.356Z,25.86
2018-06-16T13:21:34.239Z,26.14
2018-06-16T13:24:03.940Z,26.16
2018-06-16T13:26:33.044Z,26.82
2018-06-16T13:29:02.158Z,27.18
2018-06-16T13:31:35.249Z,27.17
2018-06-16T13:34:04.371Z,26.56
2018-06-16T13:36:33.641Z,26.58
2018-06-16T13:39:03.420Z,25.98
2018-06-16T13:41:34.433Z,25.65
2018-06-16T13:44:03.728Z,25.32
2018-06-16T13:46:33.003Z,25.28
2018-06-16T13:49:02.023Z,25.09
2018-06-16T13:51:34.883Z,25.12
2018-06-16T13:54:04.492Z,25.39
2018-06-16T13:56:33.837Z,25.45
2018-06-16T13:59:03.533Z,25.44
2018-06-16T14:01:34.598Z,25.35
2018-06-16T14:04:04.458Z,25.48
2018-06-16T14:06:34.243Z,25.45
2018-06-16T14:09:03.771Z,25.54
2018-06-16T14:11:34.706Z,25.51
2018-06-16T14:14:04.444Z,25.35
2018-06-16T14:16:34.582Z,25.29
2018-06-16T14:19:03.834Z,25.50
2018-06-16T14:21:34.512Z,25.39
2018-06-16T14:24:03.664Z,25.28
2018-06-16T14:26:32.763Z,25.32
2018-06-16T14:29:01.728Z,25.54
2018-06-16T14:31:35.847Z,25.48
2018-06-16T14:34:05.171Z,25.72
2018-06-16T14:36:35.084Z,25.72
2018-06-16T14:39:05.587Z,25.77
2018-06-16T14:41:35.247Z,25.59
2018-06-16T14:44:04.322Z,25.73
2018-06-16T14:46:33.643Z,26.01
2018-06-16T14:49:02.907Z,26.54
2018-06-16T14:51:36.170Z,26.58
2018-06-16T14:54:05.606Z,26.38
2018-06-16T14:56:34.928Z,26.67
2018-06-16T14:59:04.579Z,26.61
2018-06-16T15:01:34.506Z,26.31
2018-06-16T15:04:03.634Z,26.06
2018-06-16T15:06:32.704Z,26.14
2018-06-16T15:09:01.884Z,26.52
2018-06-16T15:11:35.906Z,26.08
2018-06-16T15:14:05.489Z,26.25
2018-06-16T15:16:35.012Z,26.14
2018-06-16T15:19:04.243Z,26.28
2018-06-16T15:21:34.071Z,25.86
2018-06-16T15:24:04.000Z,26.12
2018-06-16T15:26:33.852Z,25.86
2018-06-16T15:29:03.043Z,25.89
2018-06-16T15:31:35.675Z,25.94
2018-06-16T15:34:05.575Z,25.98
2018-06-16T15:36:34.870Z,25.71
2018-06-16T15:39:06.017Z,25.75
2018-06-16T15:41:35.095Z,26.00
2018-06-16T15:44:04.624Z,25.91
2018-06-16T15:46:33.978Z,25.73
2018-06-16T15:49:03.251Z,25.55
2018-06-16T15:51:35.936Z,25.09
2018-06-16T15:54:05.675Z,25.35
2018-06-16T15:56:34.883Z,25.49
2018-06-16T15:59:04.480Z,25.59
2018-06-16T16:01:34.123Z,25.40
2018-06-16T16:04:03.439Z,25.48
2018-06-16T16:06:32.448Z,25.35
2018-06-16T16:09:02.000Z,25.47
2018-06-16T16:11:34.994Z,25.23
2018-06-16T16:14:04.219Z,25.26
2018-06-16T16:16:33.638Z,25.09
2018-06-16T16:19:02.790Z,25.03
2018-06-16T16:21:33.770Z,24.93
2018-06-16T16:24:03.839Z,24.71
2018-06-16T16:26:32.922Z,24.54
2018-06-16T16:29:01.924Z,24.68
2018-06-16T16:31:34.434Z,24.55
2018-06-16T16:34:04.285Z,24.47
2018-06-16T16:36:33.771Z,24.60
2018-06-16T16:39:03.372Z,24.36
2018-06-16T16:41:33.681Z,24.37
2018-06-16T16:44:03.136Z,24.42
2018-06-16T16:46:32.491Z,24.41
2018-06-16T16:49:01.691Z,24.28
2018-06-16T16:51:35.027Z,24.06
2018-06-16T16:54:04.441Z,24.01
2018-06-16T16:56:33.573Z,24.19
2018-06-16T16:59:02.742Z,24.13
2018-06-16T17:01:36.301Z,24.00
2018-06-16T17:04:05.331Z,24.13
2018-06-16T17:06:34.503Z,24.07
2018-06-16T17:09:04.706Z,23.84
2018-06-16T17:11:33.912Z,24.00
2018-06-16T17:14:03.064Z,24.12
2018-06-16T17:16:32.059Z,23.81
2018-06-16T17:19:01.240Z,23.95
2018-06-16T17:21:34.450Z,24.12
2018-06-16T17:24:03.435Z,23.77
2018-06-16T17:26:32.476Z,23.63
2018-06-16T17:29:01.447Z,23.70
2018-06-16T17:31:33.887Z,23.53
2018-06-16T17:34:03.661Z,23.55
2018-06-16T17:36:32.673Z,23.52
2018-06-16T17:39:01.615Z,23.36
2018-06-16T17:41:33.943Z,23.25
2018-06-16T17:44:03.118Z,23.16
2018-06-16T17:46:32.365Z,23.15
2018-06-16T17:49:01.452Z,22.81
2018-06-16T17:51:35.725Z,22.62
2018-06-16T17:54:06.031Z,22.71
2018-06-16T17:56:35.105Z,22.68
2018-06-16T17:59:04.140Z,22.65
2018-06-16T18:01:34.131Z,22.60
2018-06-16T18:04:03.169Z,22.51
2018-06-16T18:06:32.371Z,22.55
2018-06-16T18:09:01.564Z,22.48
2018-06-16T18:11:34.235Z,22.32
2018-06-16T18:14:04.319Z,22.35
2018-06-16T18:16:33.297Z,22.30
2018-06-16T18:19:02.247Z,22.35
2018-06-16T18:21:35.239Z,22.47
2018-06-16T18:24:04.473Z,22.32
2018-06-16T18:26:33.660Z,22.18
2018-06-16T18:29:02.590Z,21.96
2018-06-16T18:31:34.745Z,22.16
2018-06-16T18:34:03.770Z,21.89
2018-06-16T18:36:32.768Z,21.74
2018-06-16T18:39:01.743Z,21.53
2018-06-16T18:41:34.160Z,21.30
2018-06-16T18:44:03.692Z,21.11
2018-06-16T18:46:32.655Z,20.97
2018-06-16T18:49:01.626Z,20.83
2018-06-16T18:51:33.580Z,20.66
2018-06-16T18:54:02.764Z,20.40
2018-06-16T18:56:32.008Z,20.33
2018-06-16T18:59:01.642Z,20.16
2018-06-16T19:01:34.488Z,20.26
2018-06-16T19:04:03.724Z,20.16
2018-06-16T19:06:33.376Z,20.01
2018-06-16T19:09:03.141Z,20.03
2018-06-16T19:11:34.072Z,20.04
2018-06-16T19:14:03.133Z,20.03
2018-06-16T19:16:32.081Z,20.10
2018-06-16T19:19:01.236Z,20.04
2018-06-16T19:21:33.367Z,19.96
2018-06-16T19:24:02.392Z,19.98
2018-06-16T19:26:31.550Z,19.95
2018-06-16T19:29:00.557Z,20.05
2018-06-16T19:31:32.628Z,19.91
2018-06-16T19:34:01.907Z,19.90
2018-06-16T19:36:31.859Z,20.02
2018-06-16T19:39:01.285Z,20.00
2018-06-16T19:41:33.979Z,19.87
2018-06-16T19:44:03.252Z,19.89
2018-06-16T19:46:32.335Z,19.65
2018-06-16T19:49:01.338Z,19.45
2018-06-16T19:51:33.276Z,19.17
2018-06-16T19:54:02.373Z,19.31
2018-06-16T19:56:31.382Z,19.31
2018-06-16T19:59:00.424Z,19.56
2018-06-16T20:01:32.386Z,19.58
2018-06-16T20:04:01.405Z,19.68
2018-06-16T20:06:30.342Z,19.68
2018-06-16T20:08:59.304Z,19.68
2018-06-16T20:11:32.103Z,19.78
2018-06-16T20:14:01.676Z,19.82
2018-06-16T20:16:30.583Z,19.84
2018-06-16T20:18:59.625Z,19.74
2018-06-16T20:21:33.344Z,19.70
2018-06-16T20:24:02.330Z,19.35
2018-06-16T20:26:31.304Z,19.24
2018-06-16T20:29:00.315Z,19.52
2018-06-16T20:31:33.247Z,19.47
2018-06-16T20:34:02.708Z,19.33
2018-06-16T20:36:31.688Z,19.18
2018-06-16T20:39:00.654Z,19.16
2018-06-16T20:41:32.735Z,19.31
2018-06-16T20:44:01.681Z,19.28
2018-06-16T20:46:31.217Z,19.39
2018-06-16T20:49:01.234Z,19.51
2018-06-16T20:51:35.312Z,19.58
2018-06-16T20:54:05.733Z,19.45
2018-06-16T20:56:35.237Z,19.41
2018-06-16T20:59:04.503Z,19.40
2018-06-16T21:01:34.605Z,19.50
2018-06-16T21:04:04.680Z,19.35
2018-06-16T21:06:34.157Z,19.30
2018-06-16T21:09:05.637Z,19.32
2018-06-16T21:11:38.254Z,19.24
2018-06-16T21:14:09.100Z,19.11
2018-06-16T21:16:38.399Z,19.31
2018-06-16T21:19:08.363Z,19.30
2018-06-16T21:21:39.189Z,19.30
2018-06-16T21:24:10.099Z,19.09
2018-06-16T21:26:39.043Z,19.24
2018-06-16T21:29:08.057Z,18.95
2018-06-16T21:31:37.465Z,18.87
2018-06-16T21:34:06.443Z,18.74
2018-06-16T21:36:35.394Z,18.68
2018-06-16T21:39:05.655Z,18.60
2018-06-16T21:41:34.739Z,18.69
2018-06-16T21:44:03.780Z,18.51
2018-06-16T21:46:32.727Z,18.48
2018-06-16T21:49:08.365Z,18.46
2018-06-16T21:51:37.704Z,18.53
2018-06-16T21:54:06.636Z,18.54
2018-06-16T21:56:35.646Z,18.61
2018-06-16T21:59:04.694Z,18.38
2018-06-16T22:01:36.509Z,18.39
2018-06-16T22:04:05.945Z,18.34
2018-06-16T22:06:34.980Z,18.33
2018-06-16T22:09:05.970Z,18.09
2018-06-16T22:11:34.899Z,18.08
2018-06-16T22:14:04.063Z,18.10
2018-06-16T22:16:33.355Z,17.87
2018-06-16T22:19:04.255Z,18.09
2018-06-16T22:21:34.589Z,17.96
2018-06-16T22:24:03.783Z,17.81
2018-06-16T22:26:32.706Z,17.80
2018-06-16T22:29:01.827Z,17.88
2018-06-16T22:31:34.652Z,17.74
2018-06-16T22:34:04.615Z,17.90
2018-06-16T22:36:33.580Z,17.99
2018-06-16T22:39:02.640Z,17.97
2018-06-16T22:41:35.463Z,17.84
2018-06-16T22:44:04.549Z,17.79
2018-06-16T22:46:33.713Z,17.79
2018-06-16T22:49:02.686Z,17.59
2018-06-16T22:51:33.367Z,17.56
2018-06-16T22:54:03.071Z,17.41
2018-06-16T22:56:32.914Z,17.45
2018-06-16T22:59:02.293Z,17.45
2018-06-16T23:01:34.373Z,17.36
2018-06-16T23:04:03.372Z,17.33
2018-06-16T23:06:32.295Z,17.36
2018-06-16T23:09:01.331Z,17.33
2018-06-16T23:11:33.599Z,17.41
2018-06-16T23:14:02.579Z,17.27
2018-06-16T23:16:31.723Z,17.09
2018-06-16T23:19:01.131Z,17.12
2018-06-16T23:21:34.148Z,17.05
2018-06-16T23:24:03.107Z,17.10
2018-06-16T23:26:32.294Z,17.13
2018-06-16T23:29:05.193Z,17.32
2018-06-16T23:31:36.825Z,17.22
2018-06-16T23:34:05.848Z,17.17
2018-06-16T23:36:34.805Z,17.27
2018-06-16T23:39:04.628Z,17.21
2018-06-16T23:41:33.804Z,17.03
2018-06-16T23:44:03.533Z,16.79
2018-06-16T23:46:32.616Z,16.85
2018-06-16T23:49:01.596Z,17.00
2018-06-16T23:51:33.779Z,17.03
2018-06-16T23:54:02.740Z,17.16
2018-06-16T23:56:31.664Z,17.14
2018-06-16T23:59:00.665Z,17.07
